Time;durP1;ratioP1;P1;durP2;ratioP2;P2;SDS_P1;SDS_P2;PMS_P1;PMS_P2;Temp;Humidity;BMP_temperature;BMP_pressure;BME280_temperature;BME280_humidity;BME280_pressure;Samples;Min_cycle;Max_cycle;Signal;HPM_P1;HPM_P2
2021/11/11 00:00:31;;;;;;;17.65;10.85;;;1.90;99.90;;;;;;5032618;28;20201;-70
2021/11/11 00:02:59;;;;;;;17.00;10.43;;;1.90;99.90;;;;;;5032551;28;20217;-70
2021/11/11 00:05:26;;;;;;;15.98;10.35;;;1.80;99.90;;;;;;5032571;28;20221;-70
2021/11/11 00:07:53;;;;;;;15.65;11.00;;;1.80;99.90;;;;;;5032058;28;20607;-70
2021/11/11 00:10:22;;;;;;;14.02;10.05;;;1.80;99.90;;;;;;5032287;28;20237;-70
2021/11/11 00:12:51;;;;;;;15.90;11.10;;;1.80;99.90;;;;;;5032170;28;20220;-70
2021/11/11 00:15:19;;;;;;;16.67;11.32;;;1.80;99.90;;;;;;5032310;28;20251;-70
2021/11/11 00:17:47;;;;;;;14.00;10.20;;;1.90;99.90;;;;;;5031883;28;20709;-69
2021/11/11 00:20:16;;;;;;;13.70;10.43;;;1.90;99.90;;;;;;5032469;28;20202;-70
2021/11/11 00:22:44;;;;;;;12.95;10.77;;;1.90;99.90;;;;;;5032197;28;20263;-70
2021/11/11 00:25:12;;;;;;;18.45;11.05;;;1.90;99.90;;;;;;5031949;28;20218;-69
2021/11/11 00:27:40;;;;;;;15.20;10.43;;;1.80;99.90;;;;;;5109103;23;20222;-67
2021/11/11 00:30:09;;;;;;;15.68;11.38;;;1.80;99.90;;;;;;5017188;28;20225;-68
2021/11/11 00:32:39;;;;;;;17.10;11.05;;;1.80;99.90;;;;;;5028226;28;20197;-68
2021/11/11 00:35:07;;;;;;;17.80;10.70;;;1.80;99.90;;;;;;5031689;28;20206;-67
2021/11/11 00:37:34;;;;;;;13.50;10.00;;;1.70;99.90;;;;;;5031212;28;20226;-68
2021/11/11 00:40:01;;;;;;;15.00;10.63;;;1.70;99.90;;;;;;5031691;28;20205;-68
2021/11/11 00:42:27;;;;;;;16.58;11.93;;;1.70;99.90;;;;;;5031645;28;20372;-68
2021/11/11 00:44:55;;;;;;;17.20;9.90;;;1.70;99.90;;;;;;5031336;28;20226;-68
2021/11/11 00:47:21;;;;;;;23.48;12.07;;;1.70;99.90;;;;;;5030983;28;20228;-68
2021/11/11 00:49:50;;;;;;;18.92;11.45;;;1.70;99.90;;;;;;5031433;28;20849;-68
2021/11/11 00:52:16;;;;;;;14.55;11.30;;;1.70;99.90;;;;;;5031491;28;20206;-68
2021/11/11 00:54:44;;;;;;;20.95;13.23;;;1.60;99.90;;;;;;5031133;28;20206;-68
2021/11/11 00:57:11;;;;;;;13.88;10.95;;;1.60;99.90;;;;;;5030934;28;20774;-68
2021/11/11 00:59:40;;;;;;;18.02;11.20;;;1.60;99.90;;;;;;5031320;28;20202;-68
2021/11/11 01:02:09;;;;;;;15.05;11.30;;;1.60;99.90;;;;;;5031398;28;20198;-68
2021/11/11 01:04:36;;;;;;;17.23;11.38;;;1.60;99.90;;;;;;5031079;28;20222;-68
2021/11/11 01:07:05;;;;;;;16.13;10.73;;;1.60;99.90;;;;;;5030624;28;20228;-67
2021/11/11 01:09:32;;;;;;;13.00;10.55;;;1.60;99.90;;;;;;5031141;28;20696;-68
2021/11/11 01:11:59;;;;;;;14.60;11.23;;;1.60;99.90;;;;;;5031035;28;20205;-68
2021/11/11 01:14:26;;;;;;;14.85;11.23;;;1.60;99.90;;;;;;5031122;28;20202;-68
2021/11/11 01:16:53;;;;;;;16.98;12.00;;;1.60;99.90;;;;;;5030302;28;20859;-68
2021/11/11 01:19:21;;;;;;;18.50;11.27;;;1.50;99.90;;;;;;5031175;28;20646;-68
2021/11/11 01:21:48;;;;;;;17.77;12.10;;;1.50;99.90;;;;;;5030779;28;20209;-68
2021/11/11 01:24:17;;;;;;;16.85;11.35;;;1.50;99.90;;;;;;5030525;28;20692;-68
2021/11/11 01:26:44;;;;;;;14.93;10.30;;;1.50;99.90;;;;;;5029812;28;20221;-68
2021/11/11 01:29:11;;;;;;;18.08;11.85;;;1.50;99.90;;;;;;5030874;28;20213;-68
2021/11/11 01:31:37;;;;;;;19.30;11.55;;;1.50;99.90;;;;;;5030685;28;20210;-68
2021/11/11 01:34:04;;;;;;;16.40;11.15;;;1.50;99.90;;;;;;5030716;28;20669;-68
2021/11/11 01:36:31;;;;;;;17.67;11.68;;;1.50;99.90;;;;;;5030025;28;20221;-68
2021/11/11 01:38:59;;;;;;;15.60;12.50;;;1.50;99.90;;;;;;5030595;28;20204;-68
2021/11/11 01:41:27;;;;;;;17.63;10.27;;;1.40;99.90;;;;;;5030781;28;20553;-68
2021/11/11 01:43:54;;;;;;;18.27;11.75;;;1.40;99.90;;;;;;5030502;28;20605;-68
2021/11/11 01:46:20;;;;;;;15.27;10.23;;;1.30;99.90;;;;;;5030118;28;20233;-68
2021/11/11 01:48:47;;;;;;;19.40;12.05;;;1.30;99.90;;;;;;5030514;28;20206;-68
2021/11/11 01:51:15;;;;;;;16.15;11.18;;;1.30;99.90;;;;;;5030652;28;20201;-68
2021/11/11 01:53:43;;;;;;;15.48;11.23;;;1.20;99.90;;;;;;5030454;28;20271;-68
2021/11/11 01:56:10;;;;;;;17.60;13.43;;;1.30;99.90;;;;;;5030077;28;20253;-68
2021/11/11 01:58:38;;;;;;;15.32;11.85;;;1.30;99.90;;;;;;5030522;28;20202;-68
2021/11/11 02:01:05;;;;;;;16.63;9.80;;;1.30;99.90;;;;;;5030393;28;20201;-68
2021/11/11 02:03:32;;;;;;;17.83;11.35;;;1.30;99.90;;;;;;5030341;28;20209;-68
2021/11/11 02:05:59;;;;;;;16.50;11.45;;;1.30;99.90;;;;;;5029548;28;20226;-68
2021/11/11 02:08:27;;;;;;;18.75;11.38;;;1.30;99.90;;;;;;5030539;28;20209;-68
2021/11/11 02:10:54;;;;;;;17.98;12.10;;;1.30;99.90;;;;;;5030072;28;20259;-68
2021/11/11 02:13:21;;;;;;;15.70;11.50;;;1.20;99.90;;;;;;5030306;28;20202;-68
2021/11/11 02:15:49;;;;;;;19.42;11.38;;;1.20;99.90;;;;;;5029474;28;20216;-68
2021/11/11 02:18:16;;;;;;;14.85;11.55;;;1.20;99.90;;;;;;5030460;28;20206;-68
2021/11/11 02:20:45;;;;;;;14.75;11.10;;;1.20;99.90;;;;;;5029954;28;20208;-68
2021/11/11 02:23:15;;;;;;;20.63;12.65;;;1.30;99.90;;;;;;5030400;28;20210;-68
2021/11/11 02:25:43;;;;;;;13.68;11.27;;;1.30;99.90;;;;;;5029627;28;20232;-68
2021/11/11 02:28:12;;;;;;;17.15;11.32;;;1.20;99.90;;;;;;5030223;28;20213;-68
2021/11/11 02:30:41;;;;;;;20.27;12.23;;;1.20;99.90;;;;;;5030060;28;20206;-68
2021/11/11 02:33:12;;;;;;;17.58;11.00;;;1.20;99.90;;;;;;5030244;28;20206;-68
2021/11/11 02:35:39;;;;;;;15.00;11.23;;;1.20;99.90;;;;;;5029776;28;20194;-68
2021/11/11 02:38:08;;;;;;;13.07;10.85;;;1.20;99.90;;;;;;5033804;28;20205;-68
2021/11/11 02:40:36;;;;;;;13.90;10.07;;;1.20;99.90;;;;;;5033778;28;20582;-68
2021/11/11 02:43:03;;;;;;;14.52;10.60;;;1.20;99.90;;;;;;5033808;28;20198;-68
2021/11/11 02:45:32;;;;;;;18.75;12.30;;;1.20;99.90;;;;;;5033668;28;20222;-68
2021/11/11 02:48:00;;;;;;;16.63;11.82;;;1.20;99.90;;;;;;5032983;28;20222;-68
2021/11/11 02:50:28;;;;;;;14.65;11.35;;;1.20;99.90;;;;;;5033718;28;20232;-68
2021/11/11 02:52:57;;;;;;;18.40;11.32;;;1.10;99.90;;;;;;5033416;28;20655;-67
2021/11/11 02:55:25;;;;;;;15.35;11.63;;;1.10;99.90;;;;;;5033624;28;20201;-68
2021/11/11 02:57:53;;;;;;;14.45;11.38;;;1.10;99.90;;;;;;5032857;28;20705;-68
2021/11/11 03:00:23;;;;;;;14.45;9.82;;;1.00;99.90;;;;;;5033591;28;20208;-67
2021/11/11 03:02:51;;;;;;;16.65;12.10;;;1.00;99.90;;;;;;5033277;28;20242;-68
2021/11/11 03:05:20;;;;;;;17.05;11.93;;;1.00;99.90;;;;;;5033359;28;20225;-68
2021/11/11 03:07:47;;;;;;;13.70;10.93;;;1.00;99.90;;;;;;5032539;28;20720;-68
2021/11/11 03:10:16;;;;;;;15.05;11.85;;;0.90;99.90;;;;;;5033610;28;20209;-68
2021/11/11 03:12:45;;;;;;;13.23;11.30;;;0.90;99.90;;;;;;5033150;28;20340;-68
2021/11/11 03:15:13;;;;;;;16.88;11.45;;;0.90;99.90;;;;;;5033451;28;20209;-68
2021/11/11 03:17:40;;;;;;;16.27;11.48;;;0.90;99.90;;;;;;5032602;28;20612;-68
2021/11/11 03:20:09;;;;;;;18.73;11.27;;;0.90;99.90;;;;;;5033411;28;20202;-68
2021/11/11 03:22:36;;;;;;;15.35;11.70;;;0.90;99.90;;;;;;5033173;28;20213;-68
2021/11/11 03:25:04;;;;;;;17.33;12.45;;;0.90;99.90;;;;;;5033141;28;20205;-68
2021/11/11 03:27:31;;;;;;;22.08;12.90;;;0.90;99.90;;;;;;5031532;28;20249;-68
2021/11/11 03:30:00;;;;;;;16.75;10.95;;;1.00;99.90;;;;;;5033143;28;20249;-68
2021/11/11 03:32:27;;;;;;;15.55;11.25;;;0.90;99.90;;;;;;5032977;28;20284;-68
2021/11/11 03:34:53;;;;;;;15.00;10.90;;;0.90;99.90;;;;;;5032741;28;20213;-68
2021/11/11 03:37:22;;;;;;;15.25;11.63;;;1.00;99.90;;;;;;5032366;28;20225;-68
2021/11/11 03:39:49;;;;;;;15.90;12.48;;;0.90;99.90;;;;;;5032717;28;20265;-68
2021/11/11 03:42:17;;;;;;;15.27;11.30;;;0.90;99.90;;;;;;5032875;28;20197;-68
2021/11/11 03:44:45;;;;;;;19.00;10.68;;;0.90;99.90;;;;;;5032666;28;20578;-68
2021/11/11 03:47:14;;;;;;;18.58;11.65;;;1.00;99.90;;;;;;5032189;28;20590;-68
2021/11/11 03:49:41;;;;;;;18.42;11.73;;;0.90;99.90;;;;;;5031873;28;20198;-68
2021/11/11 03:52:09;;;;;;;20.95;12.32;;;0.90;99.90;;;;;;5032764;28;20229;-68
2021/11/11 03:54:37;;;;;;;19.27;11.73;;;0.90;99.90;;;;;;5032332;28;20202;-68
2021/11/11 03:57:05;;;;;;;16.98;10.95;;;0.90;99.90;;;;;;5032050;28;20276;-68
2021/11/11 03:59:34;;;;;;;13.15;10.73;;;0.90;99.90;;;;;;5032444;28;20786;-68
2021/11/11 04:02:01;;;;;;;15.10;11.40;;;0.90;99.90;;;;;;5032783;28;20290;-68
2021/11/11 04:04:29;;;;;;;15.68;11.32;;;0.90;99.90;;;;;;5032390;28;20229;-68
2021/11/11 04:06:56;;;;;;;17.00;11.00;;;0.90;99.90;;;;;;5031624;28;20241;-68
2021/11/11 04:09:22;;;;;;;15.60;10.80;;;0.90;99.90;;;;;;5032425;28;20233;-68
2021/11/11 04:11:50;;;;;;;17.58;10.98;;;0.90;99.90;;;;;;5032185;28;20201;-68
2021/11/11 04:14:18;;;;;;;18.25;10.93;;;0.90;99.90;;;;;;5032337;28;20599;-68
2021/11/11 04:16:45;;;;;;;14.95;11.20;;;0.90;99.90;;;;;;5031391;28;21043;-68
2021/11/11 04:19:13;;;;;;;17.38;11.50;;;0.90;99.90;;;;;;5032168;28;20665;-68
2021/11/11 04:21:41;;;;;;;18.77;12.13;;;0.80;99.90;;;;;;5031953;28;20347;-68
2021/11/11 04:24:08;;;;;;;16.50;12.30;;;0.80;99.90;;;;;;5032060;28;20205;-68
2021/11/11 04:26:41;;;;;;;13.52;10.52;;;0.80;99.90;;;;;;5031284;28;20231;-68
2021/11/11 04:29:12;;;;;;;14.32;10.18;;;0.80;99.90;;;;;;5032019;28;20215;-68
2021/11/11 04:31:42;;;;;;;15.27;11.10;;;0.80;99.90;;;;;;5031755;28;20206;-67
2021/11/11 04:34:12;;;;;;;22.08;11.82;;;0.70;99.90;;;;;;5031736;28;20684;-67
2021/11/11 04:42:26;;;;;;;17.13;11.77;;;0.80;99.90;;;;;;5021522;28;20620;-67
2021/11/11 04:45:03;;;;;;;15.90;11.27;;;0.80;99.90;;;;;;5019561;28;20199;-68
2021/11/11 04:47:37;;;;;;;15.63;10.55;;;0.80;99.90;;;;;;5018596;28;20225;-68
2021/11/11 04:53:07;;;;;;;13.65;10.65;;;0.80;99.90;;;;;;5021225;28;20271;-68
2021/11/11 05:01:20;;;;;;;20.10;11.00;;;0.70;99.90;;;;;;5018608;28;20197;-68
2021/11/11 05:03:47;;;;;;;14.95;11.52;;;0.70;99.90;;;;;;5010788;28;20215;-68
2021/11/11 05:06:15;;;;;;;17.20;11.70;;;0.60;99.90;;;;;;5023921;28;20217;-68
2021/11/11 05:08:43;;;;;;;13.60;11.35;;;0.60;99.90;;;;;;5020217;28;20194;-68
2021/11/11 05:11:11;;;;;;;16.25;11.38;;;0.90;99.90;;;;;;5019039;28;20203;-68
2021/11/11 05:13:38;;;;;;;13.63;11.05;;;1.10;99.90;;;;;;5024428;28;20193;-69
2021/11/11 05:16:05;;;;;;;17.58;12.85;;;1.10;99.90;;;;;;5018235;28;20501;-67
2021/11/11 05:18:32;;;;;;;17.40;12.73;;;1.10;99.90;;;;;;5018674;28;20305;-67
2021/11/11 05:20:59;;;;;;;14.60;11.52;;;1.00;99.90;;;;;;5019939;28;20198;-67
2021/11/11 05:23:25;;;;;;;16.83;11.63;;;1.00;99.90;;;;;;5020826;28;20935;-67
2021/11/11 05:25:55;;;;;;;12.57;11.05;;;0.90;99.90;;;;;;5014936;28;20229;-68
2021/11/11 05:28:22;;;;;;;16.90;11.07;;;0.90;99.90;;;;;;5026254;28;20201;-68
2021/11/11 05:30:49;;;;;;;16.60;12.48;;;0.90;99.90;;;;;;5011074;28;20211;-68
2021/11/11 05:33:16;;;;;;;19.30;11.55;;;0.90;99.90;;;;;;5008909;28;20392;-68
2021/11/11 05:35:43;;;;;;;14.90;11.60;;;0.90;99.90;;;;;;5010219;28;20202;-68
2021/11/11 05:38:10;;;;;;;17.90;11.77;;;0.80;99.90;;;;;;5011232;28;20209;-68
2021/11/11 05:40:36;;;;;;;15.60;11.23;;;0.80;99.90;;;;;;5011316;28;20670;-68
2021/11/11 05:43:04;;;;;;;14.43;11.20;;;0.80;99.90;;;;;;5011382;28;20210;-68
2021/11/11 05:45:31;;;;;;;20.05;11.13;;;0.70;99.90;;;;;;5010886;28;20203;-68
2021/11/11 05:47:58;;;;;;;15.27;11.38;;;0.70;99.90;;;;;;5010426;28;20245;-68
2021/11/11 05:50:25;;;;;;;16.25;11.85;;;0.70;99.90;;;;;;5011153;28;20213;-68
2021/11/11 05:52:52;;;;;;;17.90;12.43;;;0.70;99.90;;;;;;5010865;28;20211;-68
2021/11/11 05:55:18;;;;;;;14.38;11.38;;;0.70;99.90;;;;;;5010963;28;20294;-68
2021/11/11 05:57:45;;;;;;;17.42;11.57;;;0.70;99.90;;;;;;5010382;28;20226;-67
2021/11/11 06:00:18;;;;;;;17.05;11.70;;;0.70;99.90;;;;;;5011144;28;20206;-67
2021/11/11 06:02:45;;;;;;;15.85;10.45;;;0.70;99.90;;;;;;5010782;28;20215;-67
2021/11/11 06:05:12;;;;;;;15.18;11.55;;;0.70;99.90;;;;;;5011136;28;20229;-67
2021/11/11 06:07:39;;;;;;;15.63;11.65;;;0.70;99.90;;;;;;5010338;28;20230;-67
2021/11/11 06:10:08;;;;;;;14.52;11.32;;;0.70;99.90;;;;;;5011195;28;20626;-67
2021/11/11 06:12:35;;;;;;;15.57;11.05;;;0.70;99.90;;;;;;5013990;28;20583;-67
2021/11/11 06:15:03;;;;;;;16.30;11.00;;;0.70;99.90;;;;;;5015036;28;20202;-67
2021/11/11 06:17:31;;;;;;;21.98;12.48;;;0.70;99.90;;;;;;5014632;28;20222;-67
2021/11/11 06:20:00;;;;;;;16.10;11.85;;;0.70;99.90;;;;;;5015163;28;20202;-67
2021/11/11 06:22:28;;;;;;;15.85;11.55;;;0.70;99.90;;;;;;5015244;28;20206;-67
2021/11/11 06:24:55;;;;;;;16.17;11.98;;;0.70;99.90;;;;;;5014979;28;20214;-67
2021/11/11 06:27:21;;;;;;;16.60;11.93;;;0.70;99.90;;;;;;5014534;28;20252;-67
2021/11/11 06:29:48;;;;;;;18.83;12.85;;;0.70;99.90;;;;;;5073901;23;20227;-91
2021/11/11 06:32:15;;;;;;;18.70;13.15;;;0.70;99.90;;;;;;5072987;28;20567;-92
2021/11/11 06:34:43;;;;;;;18.23;12.90;;;0.70;99.90;;;;;;5077265;28;20576;-91
2021/11/11 06:37:10;;;;;;;15.98;11.57;;;0.70;99.90;;;;;;5076757;28;20215;-90
2021/11/11 06:39:37;;;;;;;17.42;12.02;;;0.70;99.90;;;;;;5077368;28;20224;-90
2021/11/11 06:42:04;;;;;;;18.30;13.88;;;0.70;99.90;;;;;;5077539;28;20209;-89
2021/11/11 06:44:31;;;;;;;19.73;12.88;;;0.70;99.90;;;;;;5077044;28;20219;-91
2021/11/11 06:46:58;;;;;;;20.08;13.27;;;0.70;99.90;;;;;;5061863;28;20305;-92
2021/11/11 06:49:28;;;;;;;18.40;12.75;;;0.80;99.90;;;;;;5038536;28;20229;-91
2021/11/11 06:51:59;;;;;;;17.88;11.32;;;0.80;99.90;;;;;;5037109;28;20206;-92
2021/11/11 06:54:26;;;;;;;15.35;11.35;;;0.80;99.90;;;;;;5036924;28;20213;-91
2021/11/11 06:56:53;;;;;;;16.95;12.60;;;0.80;99.90;;;;;;5036412;28;20206;-91
2021/11/11 06:59:19;;;;;;;18.55;12.40;;;0.80;99.90;;;;;;5037234;28;20242;-91
2021/11/11 07:01:46;;;;;;;15.40;11.80;;;0.80;99.90;;;;;;5038855;28;20321;-92
2021/11/11 07:04:13;;;;;;;17.00;11.80;;;0.90;99.90;;;;;;5037815;28;20210;-93
2021/11/11 07:06:40;;;;;;;17.23;12.20;;;0.90;99.90;;;;;;5039446;28;20228;-92
2021/11/11 07:09:08;;;;;;;18.80;12.35;;;0.90;99.90;;;;;;5038308;28;20230;-92
2021/11/11 07:11:35;;;;;;;18.40;11.63;;;0.90;99.90;;;;;;5038195;28;20562;-93
2021/11/11 07:14:02;;;;;;;17.70;11.55;;;1.00;99.90;;;;;;5037592;28;20205;-92
2021/11/11 07:16:28;;;;;;;19.85;12.90;;;1.00;99.90;;;;;;5037009;28;20198;-91
2021/11/11 07:18:55;;;;;;;15.80;12.10;;;1.10;99.90;;;;;;5037559;28;20226;-92
2021/11/11 07:21:22;;;;;;;18.58;12.73;;;1.10;99.90;;;;;;5037259;28;20299;-92
2021/11/11 07:23:49;;;;;;;15.98;11.95;;;1.10;99.90;;;;;;5037845;28;20277;-92
2021/11/11 07:26:17;;;;;;;17.15;12.98;;;1.20;99.90;;;;;;5038699;28;20659;-93
2021/11/11 07:28:44;;;;;;;18.25;11.65;;;1.20;99.90;;;;;;5037307;28;20237;-92
2021/11/11 07:31:11;;;;;;;17.23;12.25;;;1.30;99.90;;;;;;5038990;28;20201;-93
2021/11/11 07:33:38;;;;;;;21.58;12.50;;;1.50;99.90;;;;;;5049995;28;20220;-93
2021/11/11 07:36:05;;;;;;;17.63;12.65;;;2.10;99.90;;;;;;5041956;28;20201;-92
2021/11/11 07:38:32;;;;;;;15.23;11.23;;;2.60;99.90;;;;;;5036521;28;20236;-93
2021/11/11 07:40:59;;;;;;;15.38;11.23;;;3.00;99.90;;;;;;5054736;28;20201;-92
2021/11/11 07:43:28;;;;;;;16.48;13.05;;;3.20;99.90;;;;;;5056364;28;20209;-92
2021/11/11 07:45:55;;;;;;;14.93;12.90;;;3.30;99.90;;;;;;5056702;28;20215;-93
2021/11/11 07:48:22;;;;;;;16.73;12.10;;;3.30;99.90;;;;;;5056281;28;20316;-92
2021/11/11 07:50:49;;;;;;;15.93;11.50;;;3.20;99.90;;;;;;5056572;28;20209;-93
2021/11/11 07:53:16;;;;;;;14.88;11.02;;;3.20;99.90;;;;;;5056288;28;20197;-93
2021/11/11 07:55:44;;;;;;;18.65;12.40;;;3.10;99.90;;;;;;5057202;28;20212;-93
2021/11/11 07:58:11;;;;;;;17.25;11.73;;;3.10;99.90;;;;;;5056250;28;20212;-91
2021/11/11 08:00:41;;;;;;;17.40;12.07;;;3.20;99.90;;;;;;5056420;28;20204;-94
2021/11/11 08:03:08;;;;;;;15.00;12.48;;;3.40;99.90;;;;;;5057788;28;20651;-93
2021/11/11 08:05:35;;;;;;;15.48;11.95;;;3.70;99.90;;;;;;5057637;28;20664;-92
2021/11/11 08:08:02;;;;;;;15.40;12.23;;;4.10;99.90;;;;;;5054480;28;20234;-92
2021/11/11 08:10:29;;;;;;;13.13;11.43;;;4.60;99.90;;;;;;5059843;28;20227;-93
2021/11/11 08:12:57;;;;;;;14.23;11.18;;;5.20;99.90;;;;;;5066415;28;20209;-92
2021/11/11 08:15:24;;;;;;;15.45;11.50;;;5.80;99.90;;;;;;5068489;28;20209;-93
2021/11/11 08:17:57;;;;;;;16.88;10.52;;;6.60;99.90;;;;;;5060012;28;20207;-92
2021/11/11 08:20:23;;;;;;;12.82;10.57;;;7.40;99.90;;;;;;5057176;28;20312;-93
2021/11/11 08:22:50;;;;;;;14.63;10.02;;;8.50;99.90;;;;;;5055837;28;20224;-93
2021/11/11 08:25:18;;;;;;;13.48;9.80;;;9.60;99.90;;;;;;5055042;28;20666;-93
2021/11/11 08:27:45;;;;;;;14.52;11.70;;;10.70;99.90;;;;;;5055132;28;20228;-94
2021/11/11 08:30:15;;;;;;;12.02;10.18;;;11.60;99.90;;;;;;5055989;28;20298;-93
2021/11/11 08:32:43;;;;;;;17.80;11.68;;;12.30;99.90;;;;;;5056079;28;20201;-92
2021/11/11 08:35:18;;;;;;;12.52;10.90;;;12.90;99.90;;;;;;5056924;28;20205;-93
2021/11/11 08:37:46;;;;;;;13.57;11.00;;;13.40;99.90;;;;;;5057456;28;20227;-93
2021/11/11 08:40:15;;;;;;;14.60;11.25;;;13.80;99.90;;;;;;5056437;28;20333;-93
2021/11/11 08:42:42;;;;;;;16.92;11.63;;;14.20;99.90;;;;;;5055034;28;20213;-93
2021/11/11 08:45:10;;;;;;;12.40;11.05;;;14.40;99.90;;;;;;5054162;28;20197;-93
2021/11/11 08:47:37;;;;;;;16.53;11.60;;;14.60;99.90;;;;;;5054108;28;20840;-93
2021/11/11 08:50:05;;;;;;;15.90;11.32;;;14.90;99.90;;;;;;5055745;28;20494;-92
2021/11/11 08:52:35;;;;;;;13.00;11.60;;;15.30;99.90;;;;;;5054184;28;20201;-93
2021/11/11 08:55:04;;;;;;;15.40;12.10;;;15.50;99.90;;;;;;5054755;28;20459;-92
2021/11/11 08:57:30;;;;;;;14.40;12.10;;;15.60;99.90;;;;;;5054558;28;20480;-93
2021/11/11 08:59:57;;;;;;;12.60;10.83;;;15.50;99.90;;;;;;5055896;28;21007;-92
2021/11/11 09:02:24;;;;;;;12.90;11.60;;;15.30;99.90;;;;;;5055378;28;21047;-93
2021/11/11 09:04:52;;;;;;;14.57;11.47;;;15.80;99.70;;;;;;5054249;28;20495;-93
2021/11/11 09:07:19;;;;;;;12.07;10.40;;;16.00;99.80;;;;;;5055256;28;20464;-94
2021/11/11 09:09:47;;;;;;;16.97;10.97;;;15.80;99.80;;;;;;5054056;28;20583;-92
2021/11/11 09:12:14;;;;;;;11.20;10.00;;;15.50;99.90;;;;;;5052711;28;20460;-92
2021/11/11 09:14:42;;;;;;;11.43;10.23;;;15.90;99.70;;;;;;5052761;28;20463;-92
2021/11/11 09:17:09;;;;;;;15.33;11.77;;;15.90;99.50;;;;;;5052476;28;20489;-92
2021/11/11 09:19:36;;;;;;;13.60;11.47;;;15.70;99.80;;;;;;5053190;28;20854;-92
2021/11/11 09:22:04;;;;;;;15.60;11.90;;;15.50;99.40;;;;;;5053916;28;20455;-92
2021/11/11 09:24:30;;;;;;;17.00;12.30;;;15.60;99.90;;;;;;5063297;28;20458;-92
2021/11/11 09:26:59;;;;;;;16.80;12.10;;;16.20;99.50;;;;;;5063057;28;20956;-91
2021/11/11 09:29:26;;;;;;;13.67;11.53;;;16.00;99.60;;;;;;5053394;28;20861;-92
2021/11/11 09:31:53;;;;;;;17.40;11.90;;;16.00;99.60;;;;;;5053364;28;20463;-92
2021/11/11 09:34:20;;;;;;;16.47;11.73;;;16.00;99.40;;;;;;5053087;28;20470;-92
2021/11/11 09:36:46;;;;;;;13.97;10.80;;;16.00;99.70;;;;;;5054153;28;20548;-93
2021/11/11 09:39:13;;;;;;;17.03;12.33;;;15.90;99.90;;;;;;5053630;28;20494;-93
2021/11/11 09:41:41;;;;;;;12.80;11.60;;;16.00;99.40;;;;;;5053417;28;20466;-92
2021/11/11 09:44:10;;;;;;;15.40;11.67;;;16.10;99.90;;;;;;5053442;28;20464;-93
2021/11/11 09:46:37;;;;;;;12.60;11.10;;;15.80;99.90;;;;;;5053352;28;20467;-92
2021/11/11 09:49:05;;;;;;;13.27;11.97;;;16.20;99.40;;;;;;5054095;28;21080;-93
2021/11/11 09:51:32;;;;;;;14.23;11.83;;;16.30;99.90;;;;;;5054656;28;20462;-93
2021/11/11 09:59:33;;;;;;;13.97;12.47;;;16.80;99.50;;;;;;5052391;28;20490;-92
2021/11/11 10:02:01;;;;;;;15.03;13.53;;;16.90;99.00;;;;;;5051924;28;20455;-92
2021/11/11 10:04:28;;;;;;;14.53;11.97;;;17.20;99.30;;;;;;5052889;28;20533;-92
2021/11/11 10:06:55;;;;;;;14.57;12.67;;;17.70;98.50;;;;;;5036280;28;20460;-92
2021/11/11 10:09:24;;;;;;;14.37;12.67;;;18.30;97.80;;;;;;5032534;28;20480;-92
2021/11/11 10:11:54;;;;;;;14.57;13.03;;;18.40;97.90;;;;;;5032391;28;20487;-93
2021/11/11 10:14:23;;;;;;;16.30;12.80;;;18.10;98.00;;;;;;5033080;28;20457;-93
2021/11/11 10:16:54;;;;;;;14.63;13.13;;;18.10;98.30;;;;;;5032854;28;20468;-93
2021/11/11 10:19:21;;;;;;;14.80;12.13;;;18.10;98.10;;;;;;5033575;28;20468;-94
2021/11/11 10:21:51;;;;;;;13.90;12.60;;;18.50;97.50;;;;;;5032812;28;20464;-93
2021/11/11 10:24:25;;;;;;;18.17;14.00;;;18.80;96.90;;;;;;5032963;28;20912;-91
2021/11/11 10:26:56;;;;;;;13.47;12.07;;;18.80;97.00;;;;;;5038337;28;20458;-95
2021/11/11 10:29:31;;;;;;;14.20;12.70;;;19.10;96.80;;;;;;5053864;28;20495;-94
2021/11/11 10:32:04;;;;;;;14.43;12.90;;;19.40;96.50;;;;;;5053726;28;20455;-94
2021/11/11 10:34:32;;;;;;;15.27;12.90;;;19.40;96.50;;;;;;5056593;28;20510;-93
2021/11/11 10:36:59;;;;;;;14.00;12.50;;;19.30;96.30;;;;;;5055723;28;20463;-94
2021/11/11 10:39:31;;;;;;;14.77;13.20;;;19.30;96.40;;;;;;5056605;28;20483;-93
2021/11/11 10:42:00;;;;;;;16.33;13.20;;;19.90;96.00;;;;;;5057438;28;20508;-94
2021/11/11 10:44:31;;;;;;;15.13;12.87;;;20.10;95.70;;;;;;5058709;28;20459;-94
2021/11/11 10:47:02;;;;;;;15.97;13.17;;;20.00;95.40;;;;;;5058646;28;20464;-94
2021/11/11 10:49:33;;;;;;;14.30;12.83;;;19.80;95.70;;;;;;5056654;28;20522;-94
2021/11/11 10:52:20;;;;;;;16.73;14.30;;;19.90;95.60;;;;;;5056174;28;20458;-93
2021/11/11 10:55:02;;;;;;;18.80;14.33;;;20.00;95.00;;;;;;5054676;28;20495;-93
2021/11/11 10:57:37;;;;;;;14.50;12.70;;;19.80;95.50;;;;;;5056677;28;20482;-93
2021/11/11 11:00:32;;;;;;;16.37;13.27;;;19.60;95.30;;;;;;5059402;28;20489;-94
2021/11/11 11:03:05;;;;;;;16.80;14.67;;;19.70;95.30;;;;;;5061154;28;20498;-95
2021/11/11 11:05:37;;;;;;;17.00;14.40;;;19.60;95.50;;;;;;5059306;28;20459;-93
2021/11/11 11:08:08;;;;;;;15.70;14.10;;;19.80;95.00;;;;;;5059423;28;20447;-94
2021/11/11 11:10:37;;;;;;;15.73;13.60;;;20.00;95.00;;;;;;5060042;28;20463;-93
2021/11/11 11:15:54;;;;;;;17.80;14.00;;;21.00;94.20;;;;;;5053250;28;20956;-92
2021/11/11 11:18:26;;;;;;;14.70;13.20;;;21.50;93.70;;;;;;5062104;28;20494;-95
2021/11/11 11:21:02;;;;;;;17.20;12.77;;;22.10;93.10;;;;;;5056924;28;20474;-94
2021/11/11 11:23:33;;;;;;;15.67;13.67;;;21.90;93.00;;;;;;5056235;28;20459;-93
2021/11/11 11:26:07;;;;;;;18.20;15.37;;;21.20;93.10;;;;;;5055367;28;21010;-92
2021/11/11 11:28:43;;;;;;;15.80;13.83;;;20.90;93.70;;;;;;5036690;28;20491;-93
2021/11/11 11:31:11;;;;;;;17.33;14.17;;;20.80;93.40;;;;;;5037327;28;20826;-93
2021/11/11 11:33:43;;;;;;;16.80;14.30;;;21.00;93.60;;;;;;5036870;28;20500;-93
2021/11/11 11:36:13;;;;;;;15.50;13.83;;;20.90;93.90;;;;;;5035210;28;20460;-92
2021/11/11 11:38:50;;;;;;;14.60;13.20;;;20.70;93.90;;;;;;5035200;28;20496;-92
2021/11/11 11:41:27;;;;;;;17.17;14.37;;;21.00;93.50;;;;;;5035368;28;20460;-93
2021/11/11 11:43:55;;;;;;;18.07;14.00;;;20.80;94.00;;;;;;5035129;28;20464;-92
2021/11/11 11:46:25;;;;;;;17.00;14.50;;;20.60;94.10;;;;;;5034791;28;20464;-93
2021/11/11 11:48:54;;;;;;;15.83;13.13;;;20.40;94.20;;;;;;5035031;28;20516;-92
2021/11/11 11:51:24;;;;;;;15.20;13.03;;;20.50;94.10;;;;;;5035399;28;20468;-93
2021/11/11 11:54:00;;;;;;;15.53;13.93;;;20.50;93.90;;;;;;5035235;28;20475;-92
2021/11/11 11:56:29;;;;;;;15.20;13.60;;;20.40;93.80;;;;;;5035390;28;20464;-92
2021/11/11 11:59:00;;;;;;;17.53;14.60;;;20.30;94.00;;;;;;5037639;28;21007;-91
2021/11/11 12:01:43;;;;;;;17.33;15.53;;;20.10;94.30;;;;;;5054376;28;20546;-92
2021/11/11 12:04:19;;;;;;;15.80;14.10;;;20.00;94.10;;;;;;5054931;28;20546;-93
2021/11/11 12:07:06;;;;;;;16.77;15.17;;;19.80;94.30;;;;;;5057971;28;20465;-92
2021/11/11 12:09:39;;;;;;;16.07;14.43;;;19.60;94.30;;;;;;5052423;28;20610;-93
2021/11/11 12:15:13;;;;;;;16.03;13.50;;;19.30;94.70;;;;;;5054498;28;20465;-93
2021/11/11 12:18:12;;;;;;;22.20;15.13;;;19.10;94.50;;;;;;5054429;28;20551;-92
2021/11/11 12:40:26;;;;;;;18.57;14.03;;;16.80;96.70;;;;;;5031884;28;20523;-67
2021/11/11 12:42:55;;;;;;;15.50;14.00;;;16.70;96.70;;;;;;5031852;28;20452;-64
2021/11/11 12:45:25;;;;;;;13.70;12.30;;;16.50;97.00;;;;;;5031793;28;20459;-67
2021/11/11 12:47:55;;;;;;;14.90;13.30;;;16.30;97.30;;;;;;5031252;28;21111;-65
2021/11/11 12:50:41;;;;;;;16.77;14.97;;;16.10;97.30;;;;;;5031752;28;20582;-65
2021/11/11 12:53:35;;;;;;;16.40;13.67;;;15.90;97.70;;;;;;5031615;28;20457;-65
2021/11/11 12:56:22;;;;;;;16.80;13.67;;;15.70;97.90;;;;;;5031199;28;20476;-65
2021/11/11 12:58:53;;;;;;;16.27;12.90;;;15.50;98.00;;;;;;5031441;28;20868;-65
2021/11/11 13:01:23;;;;;;;20.17;15.00;;;15.40;98.20;;;;;;5031617;28;20456;-64
2021/11/11 13:03:52;;;;;;;17.20;13.00;;;15.30;98.30;;;;;;5031460;28;21074;-64
2021/11/11 13:06:41;;;;;;;14.20;12.70;;;15.10;98.30;;;;;;5030769;28;20488;-64
2021/11/11 13:09:12;;;;;;;14.23;12.80;;;15.10;98.70;;;;;;5031284;28;20466;-64
2021/11/11 13:11:42;;;;;;;16.73;13.03;;;15.00;98.80;;;;;;5031415;28;20875;-65
2021/11/11 13:14:14;;;;;;;18.00;15.10;;;14.90;98.70;;;;;;5031144;28;20956;-65
2021/11/11 13:16:42;;;;;;;14.70;12.63;;;14.90;98.80;;;;;;5030695;28;20479;-65
2021/11/11 13:19:08;;;;;;;13.37;11.97;;;14.80;98.90;;;;;;5031263;28;21034;-64
2021/11/11 13:21:49;;;;;;;17.20;12.13;;;14.80;99.00;;;;;;5030192;28;20487;-67
2021/11/11 13:24:29;;;;;;;16.37;14.33;;;14.70;99.10;;;;;;5031082;28;20472;-64
2021/11/11 13:27:27;;;;;;;16.10;14.40;;;14.60;99.20;;;;;;5030382;28;20563;-65